Time;durP1;ratioP1;P1;durP2;ratioP2;P2;SDS_P1;SDS_P2;PMS_P1;PMS_P2;Temp;Humidity;BMP_temperature;BMP_pressure;BME280_temperature;BME280_humidity;BME280_pressure;Samples;Min_cycle;Max_cycle;Signal;HPM_P1;HPM_P2
2022/08/06 00:02:07;;;;;;;4.35;2.75;;;;;;;13.04;79.78;102479.97;5072386;28;20121;-64
2022/08/06 00:04:32;;;;;;;4.32;2.45;;;;;;;12.98;80.48;102469.97;5072384;28;20056;-65
2022/08/06 00:06:58;;;;;;;3.78;2.15;;;;;;;12.99;79.42;102483.19;5072514;28;20037;-65
2022/08/06 00:09:23;;;;;;;3.28;2.35;;;;;;;12.98;80.74;102484.19;5072367;28;20039;-64
2022/08/06 00:11:49;;;;;;;7.50;2.55;;;;;;;12.90;80.23;102485.06;5072316;28;20047;-65
2022/08/06 00:14:14;;;;;;;3.58;2.55;;;;;;;12.88;80.89;102494.25;5071096;28;20032;-65
2022/08/06 00:16:40;;;;;;;5.28;2.97;;;;;;;12.81;80.95;102495.94;5072107;28;20075;-65
2022/08/06 00:19:05;;;;;;;4.60;2.33;;;;;;;12.72;81.11;102493.28;5072246;28;20463;-65
2022/08/06 00:21:31;;;;;;;3.75;2.03;;;;;;;12.59;81.32;102489.47;5072143;28;20066;-64
2022/08/06 00:23:57;;;;;;;2.30;2.10;;;;;;;12.56;82.23;102492.50;5072067;28;20033;-64
2022/08/06 00:26:24;;;;;;;11.50;2.83;;;;;;;12.49;82.69;102495.00;5072016;28;20039;-67
2022/08/06 00:28:49;;;;;;;10.20;3.00;;;;;;;12.36;83.46;102495.50;5071787;28;20514;-67
2022/08/06 00:31:15;;;;;;;2.72;2.42;;;;;;;12.28;84.12;102501.69;5071894;28;20024;-67
2022/08/06 00:33:41;;;;;;;5.22;3.60;;;;;;;12.20;84.69;102499.00;5071761;28;20214;-67
2022/08/06 00:36:07;;;;;;;4.38;2.55;;;;;;;12.18;85.40;102495.69;5071850;28;20036;-67
2022/08/06 00:38:33;;;;;;;5.03;2.83;;;;;;;12.16;84.50;102495.03;5071767;28;20109;-67
2022/08/06 00:40:59;;;;;;;6.43;3.60;;;;;;;12.21;84.68;102505.22;5071757;28;20058;-65
2022/08/06 00:43:25;;;;;;;5.32;3.10;;;;;;;12.15;84.83;102504.03;5071762;28;20499;-64
2022/08/06 00:45:50;;;;;;;6.85;3.45;;;;;;;12.15;85.02;102506.69;5071732;28;20039;-64
2022/08/06 00:48:16;;;;;;;6.30;3.10;;;;;;;12.11;84.46;102507.22;5071603;28;20024;-65
2022/08/06 00:50:41;;;;;;;6.90;2.67;;;;;;;12.13;84.74;102510.53;5071598;28;20032;-64
2022/08/06 00:53:06;;;;;;;5.65;2.85;;;;;;;12.04;85.34;102509.72;5071594;28;20476;-64
2022/08/06 00:55:32;;;;;;;6.15;3.00;;;;;;;11.92;85.57;102511.88;5070211;28;20033;-65
2022/08/06 00:57:57;;;;;;;2.72;2.25;;;;;;;11.80;85.83;102518.50;5071295;28;20110;-65
2022/08/06 01:00:23;;;;;;;5.00;2.78;;;;;;;11.77;86.22;102524.19;5071357;28;20082;-65
2022/08/06 01:02:48;;;;;;;3.53;2.50;;;;;;;11.73;86.25;102520.16;5071424;28;20033;-65
2022/08/06 01:05:14;;;;;;;6.07;2.50;;;;;;;11.75;86.89;102528.84;5071283;28;20434;-65
2022/08/06 01:07:39;;;;;;;5.05;3.42;;;;;;;11.73;86.76;102529.00;5071329;28;20107;-65
2022/08/06 01:10:05;;;;;;;9.20;3.40;;;;;;;11.64;87.07;102527.31;5071373;28;20477;-65
2022/08/06 01:12:31;;;;;;;8.70;2.92;;;;;;;11.46;86.75;102511.38;5071161;28;20075;-65
2022/08/06 01:14:56;;;;;;;4.40;3.13;;;;;;;11.47;86.99;102530.91;5071090;28;20060;-65
2022/08/06 01:17:31;;;;;;;7.38;2.75;;;;;;;11.47;87.58;102541.59;5071061;28;20033;-65
2022/08/06 01:20:01;;;;;;;5.45;3.17;;;;;;;11.51;87.17;102537.63;5070957;28;20031;-65
2022/08/06 01:22:36;;;;;;;7.45;3.40;;;;;;;11.57;87.26;102539.63;5071145;28;20052;-69
2022/08/06 01:25:28;;;;;;;13.70;4.45;;;;;;;11.60;87.28;102547.31;5071003;28;20039;-69
2022/08/06 01:28:01;;;;;;;7.00;4.22;;;;;;;11.62;87.11;102546.16;5070325;28;20395;-68
2022/08/06 01:30:37;;;;;;;5.57;3.47;;;;;;;11.65;87.17;102550.34;5070856;28;20036;-68
2022/08/06 01:33:27;;;;;;;7.18;3.67;;;;;;;11.68;87.02;102549.19;5070588;28;20125;-68
2022/08/06 01:35:57;;;;;;;12.10;4.70;;;;;;;11.62;86.97;102540.81;5070644;28;20032;-68
2022/08/06 01:38:44;;;;;;;5.28;3.20;;;;;;;11.61;87.46;102557.88;5070512;28;20078;-68
2022/08/06 01:41:38;;;;;;;8.10;3.97;;;;;;;11.65;87.27;102555.69;5070698;28;20029;-68
2022/08/06 01:44:02;;;;;;;5.75;3.15;;;;;;;11.67;87.05;102551.03;5070434;28;20078;-68
2022/08/06 01:46:28;;;;;;;6.78;3.13;;;;;;;11.64;87.02;102556.72;5070587;28;20028;-68
2022/08/06 01:48:57;;;;;;;8.15;3.00;;;;;;;11.57;87.04;102553.00;5070432;28;20048;-68
2022/08/06 01:51:24;;;;;;;9.23;4.82;;;;;;;11.55;87.70;102550.50;5070285;28;20028;-68
2022/08/06 01:53:52;;;;;;;5.07;3.13;;;;;;;11.51;87.88;102546.47;5070427;28;20029;-68
2022/08/06 01:56:19;;;;;;;4.93;3.15;;;;;;;11.50;88.11;102552.81;5070386;28;20380;-68
2022/08/06 01:58:49;;;;;;;6.38;3.20;;;;;;;11.43;88.18;102553.63;5069965;28;20036;-68
2022/08/06 02:01:18;;;;;;;5.55;2.85;;;;;;;11.33;88.60;102546.56;5070184;28;20028;-70
2022/08/06 02:03:47;;;;;;;4.75;3.08;;;;;;;11.26;88.92;102547.34;5070076;28;20107;-69
2022/08/06 02:06:16;;;;;;;6.07;3.15;;;;;;;11.19;89.57;102550.66;5069652;28;20042;-69
2022/08/06 02:08:44;;;;;;;6.13;3.45;;;;;;;11.17;89.89;102552.66;5070040;28;20547;-69
2022/08/06 02:11:11;;;;;;;5.40;3.22;;;;;;;11.21;89.76;102547.81;5069989;28;20028;-65
2022/08/06 02:13:38;;;;;;;8.82;3.42;;;;;;;11.24;89.71;102546.66;5069244;28;20036;-65
2022/08/06 02:16:06;;;;;;;7.25;3.78;;;;;;;11.26;89.64;102555.38;5069733;28;20460;-65
2022/08/06 02:18:37;;;;;;;5.80;3.25;;;;;;;11.28;89.65;102556.03;5069763;28;20041;-65
2022/08/06 02:21:07;;;;;;;9.27;3.65;;;;;;;11.29;89.18;102561.25;5069852;28;20048;-65
2022/08/06 02:23:35;;;;;;;7.60;3.80;;;;;;;11.32;88.61;102557.41;5069610;28;20028;-66
2022/08/06 02:26:03;;;;;;;7.43;3.50;;;;;;;11.33;88.59;102559.91;5069783;28;20441;-65
2022/08/06 02:28:31;;;;;;;7.20;4.10;;;;;;;11.36;88.74;102561.44;5069798;28;20460;-65
2022/08/06 02:30:58;;;;;;;7.55;3.38;;;;;;;11.35;89.22;102560.59;5069686;28;20020;-65
2022/08/06 02:33:24;;;;;;;5.32;3.50;;;;;;;11.32;88.96;102560.91;5069467;28;20585;-65
2022/08/06 02:36:16;;;;;;;8.30;3.72;;;;;;;11.30;89.15;102564.75;5069609;28;20044;-65
2022/08/06 02:38:50;;;;;;;7.15;4.25;;;;;;;11.30;89.60;102567.41;5062724;28;20064;-65
2022/08/06 02:41:29;;;;;;;9.00;3.28;;;;;;;11.23;88.77;102551.19;5069602;28;20131;-65
2022/08/06 02:44:02;;;;;;;8.23;3.65;;;;;;;11.28;88.98;102551.53;5069448;28;20039;-65
2022/08/06 02:46:36;;;;;;;7.28;3.15;;;;;;;11.29;89.22;102555.91;5068723;28;20495;-66
2022/08/06 02:49:20;;;;;;;7.88;3.78;;;;;;;11.23;88.60;102559.19;5068865;28;20107;-65
2022/08/06 02:51:53;;;;;;;5.15;3.10;;;;;;;11.21;89.28;102563.84;5069475;28;20476;-65
2022/08/06 02:54:37;;;;;;;7.80;3.50;;;;;;;11.19;89.17;102561.34;5069355;28;20024;-66
2022/08/06 02:57:06;;;;;;;7.05;3.50;;;;;;;11.22;89.01;102565.53;5068827;28;20655;-65
2022/08/06 02:59:43;;;;;;;6.55;3.90;;;;;;;11.20;88.77;102564.84;5069263;28;20444;-65
2022/08/06 03:02:10;;;;;;;5.57;3.50;;;;;;;11.16;88.69;102564.34;5069381;28;20065;-65
2022/08/06 03:04:40;;;;;;;4.22;3.08;;;;;;;11.11;89.12;102563.97;5069180;28;20035;-66
2022/08/06 03:07:08;;;;;;;4.80;3.05;;;;;;;11.04;89.05;102570.94;5069179;28;20009;-66
2022/08/06 03:09:35;;;;;;;8.43;3.40;;;;;;;10.96;89.29;102570.88;5069124;28;20488;-65
2022/08/06 03:12:01;;;;;;;4.55;3.17;;;;;;;10.88;90.03;102570.84;5068834;28;20025;-65
2022/08/06 03:14:28;;;;;;;11.38;4.47;;;;;;;10.84;90.08;102569.47;5068494;28;20039;-65
2022/08/06 03:16:55;;;;;;;5.13;3.28;;;;;;;10.86;90.07;102570.97;5068454;28;20720;-66
2022/08/06 03:19:22;;;;;;;7.72;3.17;;;;;;;10.83;89.99;102568.63;5072197;28;20034;-65
2022/08/06 03:21:49;;;;;;;8.23;3.63;;;;;;;10.78;89.83;102568.25;5073325;28;20063;-65
2022/08/06 03:24:15;;;;;;;6.43;4.25;;;;;;;10.74;90.28;102569.53;5073100;28;20033;-65
2022/08/06 03:26:41;;;;;;;5.80;3.08;;;;;;;10.65;90.24;102571.31;5073109;28;20024;-65
2022/08/06 03:29:09;;;;;;;7.00;4.00;;;;;;;10.56;90.80;102572.25;5073039;28;20126;-65
2022/08/06 03:31:34;;;;;;;5.47;3.50;;;;;;;10.52;91.41;102568.22;5073024;28;20618;-65
2022/08/06 03:34:01;;;;;;;6.10;3.83;;;;;;;10.48;91.52;102570.38;5072506;28;20080;-65
2022/08/06 03:36:27;;;;;;;7.50;4.53;;;;;;;10.51;92.15;102574.56;5072957;28;20066;-65
2022/08/06 03:38:58;;;;;;;6.72;4.68;;;;;;;10.52;92.29;102585.06;5072989;28;20028;-65
2022/08/06 03:41:25;;;;;;;4.88;3.30;;;;;;;10.47;92.15;102587.34;5072995;28;21010;-65
2022/08/06 03:43:51;;;;;;;7.53;3.75;;;;;;;10.44;92.67;102576.97;5072784;28;20028;-65
2022/08/06 03:46:22;;;;;;;6.72;3.97;;;;;;;10.47;92.77;102583.84;5072662;28;20039;-65
2022/08/06 03:48:50;;;;;;;6.82;3.75;;;;;;;10.52;92.31;102579.72;5071167;28;20410;-65
2022/08/06 03:51:20;;;;;;;5.30;3.60;;;;;;;10.55;92.10;102575.06;5072140;28;20483;-65
2022/08/06 03:53:48;;;;;;;5.70;3.80;;;;;;;10.47;91.93;102573.16;5071998;28;20035;-65
2022/08/06 03:56:18;;;;;;;5.68;3.20;;;;;;;10.46;92.32;102591.00;5072560;28;20032;-65
2022/08/06 03:58:46;;;;;;;6.35;3.35;;;;;;;10.47;92.65;102581.19;5071825;28;20048;-65
2022/08/06 04:01:16;;;;;;;7.85;4.15;;;;;;;10.47;92.32;102595.34;5072500;28;20723;-65
2022/08/06 04:03:43;;;;;;;12.52;5.50;;;;;;;10.47;92.13;102591.84;5072317;28;20024;-65
2022/08/06 04:06:11;;;;;;;9.23;3.90;;;;;;;10.53;92.04;102608.09;5072396;28;20374;-65
2022/08/06 04:08:39;;;;;;;5.07;3.80;;;;;;;10.57;92.59;102608.63;5071952;28;20032;-65
2022/08/06 04:11:05;;;;;;;7.18;3.47;;;;;;;10.60;92.35;102600.28;5072189;28;20024;-65
2022/08/06 04:13:31;;;;;;;5.60;3.42;;;;;;;10.61;91.59;102611.81;5071735;28;20032;-65
2022/08/06 04:15:56;;;;;;;7.57;3.42;;;;;;;10.63;92.07;102604.50;5071541;28;20028;-65
2022/08/06 04:18:28;;;;;;;5.63;3.40;;;;;;;10.60;92.24;102605.63;5071151;28;20056;-65
2022/08/06 04:20:58;;;;;;;9.85;4.13;;;;;;;10.53;92.02;102600.09;5071707;28;20024;-65
2022/08/06 04:23:23;;;;;;;6.43;3.13;;;;;;;10.64;91.62;102611.53;5071967;28;20056;-65
2022/08/06 04:25:56;;;;;;;7.70;4.15;;;;;;;10.65;92.00;102621.19;5071937;28;20071;-65
2022/08/06 04:28:23;;;;;;;7.88;3.60;;;;;;;10.66;91.57;102617.50;5071752;28;20037;-65
2022/08/06 04:30:50;;;;;;;6.90;3.70;;;;;;;10.67;91.26;102617.38;5069959;28;20036;-65
2022/08/06 04:33:20;;;;;;;6.30;4.05;;;;;;;10.67;91.04;102632.56;5071372;28;20057;-65
2022/08/06 04:35:46;;;;;;;8.10;3.38;;;;;;;10.65;91.35;102619.34;5071896;28;20104;-65
2022/08/06 04:38:13;;;;;;;5.75;4.47;;;;;;;10.70;91.44;102629.56;5071554;28;20115;-65
2022/08/06 04:40:38;;;;;;;10.38;3.85;;;;;;;10.75;90.81;102632.63;5071504;28;20032;-65
2022/08/06 04:43:06;;;;;;;6.97;3.53;;;;;;;10.78;91.18;102629.63;5071551;28;20085;-65
2022/08/06 04:45:33;;;;;;;7.03;3.65;;;;;;;10.84;91.86;102621.00;5071755;28;20032;-66
2022/08/06 04:48:00;;;;;;;7.13;3.58;;;;;;;11.15;90.83;102629.41;5071405;28;20020;-65
2022/08/06 04:50:25;;;;;;;5.35;3.53;;;;;;;11.82;87.66;102632.28;5071318;28;20044;-65
2022/08/06 04:52:51;;;;;;;9.13;4.35;;;;;;;11.96;86.52;102632.72;5070895;28;20594;-65
2022/08/06 04:55:20;;;;;;;7.82;3.72;;;;;;;11.78;86.29;102635.44;5071552;28;21007;-65
2022/08/06 04:57:46;;;;;;;7.97;3.78;;;;;;;11.73;87.11;102638.59;5071517;28;20040;-65
2022/08/06 05:00:12;;;;;;;7.82;4.63;;;;;;;11.89;86.89;102642.38;5070568;28;20089;-65
2022/08/06 05:02:37;;;;;;;5.80;3.40;;;;;;;12.03;86.94;102647.13;5069856;28;20078;-65
2022/08/06 05:05:04;;;;;;;7.88;4.03;;;;;;;12.05;86.03;102645.09;5071213;28;20052;-65
2022/08/06 05:07:32;;;;;;;5.20;3.30;;;;;;;12.05;86.34;102645.94;5070928;28;20025;-66
2022/08/06 05:09:59;;;;;;;6.13;3.80;;;;;;;12.08;86.12;102655.50;5070899;28;20074;-65
2022/08/06 05:12:30;;;;;;;6.90;3.97;;;;;;;12.06;86.30;102649.47;5069688;28;20051;-65
2022/08/06 05:15:01;;;;;;;7.05;3.67;;;;;;;12.11;86.37;102651.66;5070801;28;20040;-65
2022/08/06 05:17:32;;;;;;;9.27;3.50;;;;;;;12.17;86.48;102657.16;5070837;28;20495;-65
2022/08/06 05:20:04;;;;;;;6.33;3.70;;;;;;;12.18;86.19;102652.66;5070937;28;20070;-65
2022/08/06 05:22:32;;;;;;;7.15;4.65;;;;;;;12.27;86.16;102657.88;5070896;28;20086;-69
2022/08/06 05:24:58;;;;;;;6.55;3.60;;;;;;;12.27;85.93;102657.88;5070785;28;20024;-69
2022/08/06 05:27:24;;;;;;;7.38;4.60;;;;;;;12.27;86.04;102662.41;5070406;28;20196;-70
2022/08/06 05:29:49;;;;;;;6.40;4.05;;;;;;;12.35;86.10;102653.56;5069431;28;20036;-69
2022/08/06 05:32:15;;;;;;;6.28;3.70;;;;;;;12.51;85.89;102666.97;5070574;28;20061;-69
2022/08/06 05:34:40;;;;;;;8.88;4.05;;;;;;;12.58;86.23;102670.66;5070757;28;20063;-70
2022/08/06 05:37:05;;;;;;;9.48;4.13;;;;;;;12.61;86.84;102673.00;5070500;28;20376;-69
2022/08/06 05:39:31;;;;;;;10.32;3.80;;;;;;;12.64;87.02;102672.66;5070412;28;20039;-70
2022/08/06 05:41:56;;;;;;;8.70;4.72;;;;;;;12.66;87.11;102672.50;5068417;28;20028;-70
2022/08/06 05:44:22;;;;;;;7.97;4.57;;;;;;;12.74;86.97;102674.34;5070456;28;20101;-70
2022/08/06 05:46:55;;;;;;;9.80;4.28;;;;;;;12.81;87.13;102678.88;5070317;28;20047;-69
2022/08/06 05:49:46;;;;;;;10.55;3.83;;;;;;;12.95;87.20;102685.41;5070337;28;20114;-70
2022/08/06 05:52:26;;;;;;;6.38;3.92;;;;;;;13.09;87.35;102674.00;5070408;28;20055;-69
2022/08/06 05:55:00;;;;;;;11.13;4.00;;;;;;;13.21;87.69;102677.19;5070434;28;20039;-66
2022/08/06 05:57:51;;;;;;;7.90;3.90;;;;;;;13.33;87.87;102670.50;5070191;28;20491;-66
2022/08/06 06:00:19;;;;;;;6.90;3.60;;;;;;;13.50;88.91;102674.00;5070204;28;20029;-66
2022/08/06 06:02:49;;;;;;;9.18;3.95;;;;;;;13.59;87.06;102674.78;5070299;28;20024;-65
2022/08/06 06:05:15;;;;;;;8.38;3.67;;;;;;;13.71;86.39;102683.31;5069956;28;20043;-65
2022/08/06 06:07:41;;;;;;;5.78;3.45;;;;;;;13.77;86.22;102679.94;5069972;28;20029;-65
2022/08/06 06:10:07;;;;;;;8.57;3.85;;;;;;;13.81;86.15;102679.44;5068473;28;20803;-65
2022/08/06 06:12:34;;;;;;;7.68;4.40;;;;;;;13.90;86.40;102688.28;5069774;28;20028;-65
2022/08/06 06:15:02;;;;;;;8.40;3.80;;;;;;;13.94;86.98;102676.19;5069416;28;20149;-65
2022/08/06 06:18:02;;;;;;;7.95;4.05;;;;;;;14.00;87.03;102686.22;5069706;28;20043;-66
2022/08/06 06:21:06;;;;;;;7.05;3.63;;;;;;;14.07;86.44;102683.69;5066060;28;20528;-65
2022/08/06 06:23:39;;;;;;;8.98;4.15;;;;;;;14.13;86.30;102687.53;5069578;28;20103;-66
2022/08/06 06:26:19;;;;;;;7.10;3.83;;;;;;;14.20;85.86;102685.78;5069600;28;20048;-66
2022/08/06 06:28:51;;;;;;;8.63;4.22;;;;;;;14.27;85.88;102686.75;5069628;28;20074;-68
2022/08/06 06:31:45;;;;;;;8.95;3.78;;;;;;;14.33;85.73;102688.75;5069672;28;20039;-67
2022/08/06 06:34:47;;;;;;;12.00;4.30;;;;;;;14.38;85.72;102683.72;5069401;28;20063;-66
2022/08/06 06:37:31;;;;;;;5.97;3.60;;;;;;;14.43;86.02;102697.41;5069398;28;20044;-66
2022/08/06 06:39:59;;;;;;;5.93;3.40;;;;;;;14.47;85.30;102696.06;5069478;28;20038;-66
2022/08/06 06:42:34;;;;;;;5.63;3.22;;;;;;;14.51;85.00;102693.84;5069616;28;20028;-65
2022/08/06 06:45:18;;;;;;;5.10;3.33;;;;;;;14.52;84.76;102689.31;5069485;28;20032;-66
2022/08/06 06:47:59;;;;;;;20.10;5.93;;;;;;;14.57;84.81;102693.19;5069185;28;20111;-66
2022/08/06 06:50:42;;;;;;;7.70;3.28;;;;;;;14.65;83.83;102705.72;5068556;28;20413;-66
2022/08/06 06:53:10;;;;;;;6.25;3.65;;;;;;;14.69;84.32;102704.34;5068977;28;20117;-66
2022/08/06 06:55:39;;;;;;;7.22;3.50;;;;;;;14.74;84.99;102696.56;5069270;28;20035;-66
2022/08/06 06:58:21;;;;;;;11.25;3.40;;;;;;;14.83;84.46;102705.44;5069310;28;20036;-66
2022/08/06 07:00:47;;;;;;;8.32;3.63;;;;;;;14.94;84.54;102702.31;5069053;28;20081;-67
2022/08/06 07:03:14;;;;;;;6.30;3.30;;;;;;;15.01;82.99;102702.41;5068876;28;20040;-66
2022/08/06 07:05:43;;;;;;;7.95;3.63;;;;;;;15.10;83.20;102709.41;5069297;28;20059;-67
2022/08/06 07:08:11;;;;;;;7.28;3.78;;;;;;;15.17;81.37;102704.13;5069192;28;20755;-67
2022/08/06 07:10:39;;;;;;;5.15;3.83;;;;;;;15.27;80.96;102707.38;5069054;28;20025;-67
2022/08/06 07:13:05;;;;;;;7.75;4.30;;;;;;;15.36;81.48;102698.25;5069077;28;20115;-66
2022/08/06 07:15:32;;;;;;;4.57;2.70;;;;;;;15.47;79.65;102707.72;5068799;28;20476;-67
2022/08/06 07:17:58;;;;;;;4.85;2.42;;;;;;;15.52;77.62;102708.84;5069071;28;20032;-67
2022/08/06 07:20:28;;;;;;;4.57;2.00;;;;;;;15.61;78.36;102708.75;5069049;28;20036;-68
2022/08/06 07:22:55;;;;;;;6.53;2.75;;;;;;;15.69;78.96;102709.53;5068317;28;20032;-68
2022/08/06 07:25:22;;;;;;;5.82;2.08;;;;;;;15.77;77.45;102716.66;5067407;28;20586;-68
2022/08/06 07:27:50;;;;;;;6.63;2.92;;;;;;;15.82;76.10;102708.88;5069087;28;20066;-67
2022/08/06 07:30:18;;;;;;;5.70;2.50;;;;;;;15.82;75.47;102710.72;5069065;28;20384;-68
2022/08/06 07:32:45;;;;;;;2.45;1.73;;;;;;;15.92;74.73;102719.34;5068874;28;20487;-68
2022/08/06 07:35:12;;;;;;;7.13;2.45;;;;;;;15.98;75.06;102719.47;5068991;28;20416;-67
2022/08/06 07:37:41;;;;;;;3.78;2.78;;;;;;;16.04;75.34;102720.56;5068817;28;20541;-67
2022/08/06 07:40:15;;;;;;;8.02;2.30;;;;;;;16.10;74.95;102718.97;5068872;28;20048;-67
2022/08/06 07:42:42;;;;;;;7.07;2.60;;;;;;;16.18;75.87;102725.09;5068636;28;20548;-67
2022/08/06 07:45:10;;;;;;;6.47;2.70;;;;;;;16.21;73.00;102727.41;5067871;28;20044;-67
2022/08/06 07:47:41;;;;;;;2.88;2.17;;;;;;;16.34;74.28;102737.50;5068425;28;20024;-67
2022/08/06 07:50:09;;;;;;;4.40;2.35;;;;;;;16.34;71.89;102737.50;5068782;28;20321;-66
2022/08/06 07:52:36;;;;;;;7.45;2.50;;;;;;;16.38;71.31;102737.97;5068658;28;20392;-67
2022/08/06 07:55:01;;;;;;;6.82;2.65;;;;;;;16.44;70.97;102729.97;5068232;28;20399;-67
2022/08/06 07:57:28;;;;;;;1.73;1.10;;;;;;;16.46;69.16;102729.78;5066854;28;20037;-67
2022/08/06 07:59:54;;;;;;;2.80;1.30;;;;;;;16.51;68.96;102734.59;5068803;28;20043;-67
2022/08/06 08:02:20;;;;;;;3.30;1.42;;;;;;;16.53;68.48;102729.84;5068591;28;20032;-66
2022/08/06 08:07:31;;;;;;;3.90;1.15;;;;;;;16.57;65.76;102745.44;5072453;28;20483;-66
2022/08/06 08:09:58;;;;;;;2.25;1.58;;;;;;;16.75;66.61;102752.28;5072106;28;20030;-66
2022/08/06 08:12:25;;;;;;;5.75;2.75;;;;;;;16.99;63.84;102746.53;5071858;28;20032;-67
2022/08/06 08:14:51;;;;;;;3.92;2.47;;;;;;;17.79;66.23;102741.81;5072171;28;20035;-67
2022/08/06 08:17:17;;;;;;;4.15;1.98;;;;;;;19.25;60.35;102742.25;5070718;28;20037;-68
2022/08/06 08:19:43;;;;;;;2.08;1.77;;;;;;;21.33;53.88;102751.22;5072031;28;20480;-67
2022/08/06 08:22:11;;;;;;;5.25;2.42;;;;;;;22.92;50.18;102738.47;5072139;28;20036;-73
2022/08/06 08:24:38;;;;;;;4.45;1.40;;;;;;;24.62;44.13;102740.28;5071706;28;20033;-73
2022/08/06 08:27:08;;;;;;;2.70;1.38;;;;;;;26.11;41.10;102752.44;5071686;28;20139;-73
2022/08/06 08:29:33;;;;;;;2.40;1.35;;;;;;;27.44;38.33;102739.19;5071902;28;20052;-73
2022/08/06 08:32:00;;;;;;;3.10;1.98;;;;;;;28.45;35.98;102737.16;5071747;28;20075;-73
2022/08/06 08:34:25;;;;;;;4.50;1.40;;;;;;;28.63;34.24;102742.94;5071640;28;20025;-69
2022/08/06 08:36:50;;;;;;;9.00;1.60;;;;;;;28.51;34.46;102734.16;5071727;28;20108;-74
2022/08/06 08:39:17;;;;;;;3.53;1.55;;;;;;;28.90;34.53;102739.13;5071713;28;20050;-74
2022/08/06 08:42:17;;;;;;;2.35;1.08;;;;;;;29.13;38.80;102743.25;5071582;28;20028;-75
2022/08/06 08:44:44;;;;;;;3.67;1.50;;;;;;;27.07;36.00;102734.53;5057119;28;20040;-74
2022/08/06 08:47:13;;;;;;;5.13;1.10;;;;;;;26.91;35.25;102744.53;5071549;28;20091;-74
2022/08/06 08:49:54;;;;;;;3.47;1.27;;;;;;;27.35;37.62;102733.34;5071587;28;20039;-74
2022/08/06 08:52:31;;;;;;;2.55;0.88;;;;;;;27.77;34.75;102737.97;5071548;28;20024;-74
2022/08/06 08:55:01;;;;;;;0.85;0.85;;;;;;;27.53;32.54;102734.84;5071192;28;20464;-73
2022/08/06 08:57:28;;;;;;;3.45;1.02;;;;;;;27.53;32.02;102741.16;5052660;28;20064;-74
2022/08/06 08:59:54;;;;;;;1.30;1.00;;;;;;;26.77;33.97;102749.59;5071246;28;20965;-74
2022/08/06 09:02:20;;;;;;;1.77;0.65;;;;;;;25.30;38.26;102750.19;5071353;28;20116;-74
2022/08/06 09:04:45;;;;;;;3.22;1.00;;;;;;;24.02;39.36;102749.72;5070695;28;20111;-73
2022/08/06 09:07:11;;;;;;;6.07;0.90;;;;;;;23.05;41.61;102751.03;5070893;28;20078;-74
2022/08/06 09:09:38;;;;;;;0.60;0.60;;;;;;;22.31;44.26;102753.97;5071197;28;20029;-76
2022/08/06 09:12:04;;;;;;;0.98;0.40;;;;;;;21.65;42.70;102762.84;5071265;28;20384;-74
2022/08/06 09:14:29;;;;;;;2.55;0.70;;;;;;;21.25;48.16;102763.19;5071145;28;20035;-73
2022/08/06 09:16:57;;;;;;;1.63;1.40;;;;;;;20.78;48.06;102754.56;5069971;28;20120;-75
2022/08/06 09:19:23;;;;;;;3.00;1.58;;;;;;;20.33;49.16;102755.38;5071036;28;20066;-74
2022/08/06 09:21:48;;;;;;;3.30;0.77;;;;;;;20.16;47.97;102761.50;5070841;28;20569;-75
2022/08/06 09:24:14;;;;;;;6.32;0.70;;;;;;;20.09;47.34;102753.38;5069487;28;20025;-72
2022/08/06 09:27:02;;;;;;;6.32;1.40;;;;;;;20.07;49.79;102761.75;5070008;28;20032;-71
2022/08/06 09:29:28;;;;;;;0.90;0.65;;;;;;;20.05;47.41;102753.00;5071023;28;20028;-69
2022/08/06 09:31:54;;;;;;;1.27;1.17;;;;;;;19.99;48.67;102745.72;5070607;28;20040;-70
2022/08/06 09:34:19;;;;;;;4.70;1.30;;;;;;;19.91;51.34;102754.06;5070256;28;20052;-71
2022/08/06 09:36:46;;;;;;;2.20;1.15;;;;;;;19.97;51.46;102747.81;5070615;28;20501;-71
2022/08/06 09:39:12;;;;;;;3.10;0.85;;;;;;;19.82;48.09;102750.75;5070463;28;20025;-71
2022/08/06 09:41:49;;;;;;;0.95;0.95;;;;;;;19.79;49.04;102753.06;5070800;28;20052;-70
2022/08/06 09:44:14;;;;;;;2.80;0.98;;;;;;;19.78;49.39;102743.25;5070520;28;20047;-71
2022/08/06 09:46:45;;;;;;;0.68;0.68;;;;;;;19.82;47.35;102758.06;5070454;28;20472;-71
2022/08/06 09:49:13;;;;;;;2.35;0.60;;;;;;;19.73;46.97;102762.00;5070453;28;20031;-71
2022/08/06 09:51:39;;;;;;;2.40;0.90;;;;;;;19.84;50.51;102766.81;5070132;28;20032;-70
2022/08/06 09:54:08;;;;;;;0.90;0.70;;;;;;;19.96;50.17;102756.13;5070267;28;20081;-71
2022/08/06 09:56:34;;;;;;;0.70;0.70;;;;;;;20.02;51.07;102748.00;5070290;28;20111;-68
2022/08/06 09:59:06;;;;;;;6.45;1.35;;;;;;;20.17;51.68;102765.84;5069884;28;20033;-68
2022/08/06 10:01:39;;;;;;;5.20;1.60;;;;;;;20.24;50.88;102766.69;5069852;28;20036;-68
2022/08/06 10:04:05;;;;;;;2.38;1.00;;;;;;;20.24;50.80;102766.69;5069921;28;20039;-68
2022/08/06 10:06:30;;;;;;;4.53;1.25;;;;;;;19.85;48.71;102763.03;5069785;28;20029;-68
2022/08/06 10:09:11;;;;;;;1.95;0.80;;;;;;;19.74;49.73;102764.53;5069903;28;20020;-68
2022/08/06 10:11:40;;;;;;;6.18;1.48;;;;;;;19.75;49.25;102768.06;5069866;28;20035;-68
2022/08/06 10:14:29;;;;;;;3.38;0.77;;;;;;;19.86;48.13;102762.84;5069972;28;20024;-68
2022/08/06 10:17:18;;;;;;;1.33;0.90;;;;;;;19.85;47.69;102757.63;5069882;28;20028;-68
2022/08/06 10:19:46;;;;;;;2.15;0.70;;;;;;;19.92;47.29;102758.44;5069939;28;20028;-67
2022/08/06 10:22:16;;;;;;;3.00;0.57;;;;;;;20.09;47.92;102748.78;5069934;28;20032;-68
2022/08/06 10:24:54;;;;;;;2.40;0.80;;;;;;;20.17;48.29;102755.03;5069774;28;20138;-67
2022/08/06 10:27:22;;;;;;;3.38;0.73;;;;;;;19.98;50.69;102748.63;5069295;28;20040;-68
2022/08/06 10:29:53;;;;;;;4.65;1.30;;;;;;;19.80;49.96;102752.00;5069114;28;20371;-68
2022/08/06 10:32:42;;;;;;;1.20;1.10;;;;;;;19.69;49.71;102757.03;5069523;28;20121;-68
2022/08/06 10:35:08;;;;;;;1.08;0.85;;;;;;;19.60;46.62;102741.19;5069434;28;20032;-68
2022/08/06 10:37:42;;;;;;;2.78;0.77;;;;;;;19.84;48.33;102737.84;5069494;28;20423;-68
2022/08/06 10:40:11;;;;;;;2.40;0.80;;;;;;;19.92;49.08;102723.25;5069443;28;20021;-68
2022/08/06 10:42:38;;;;;;;1.15;0.85;;;;;;;20.13;47.82;102741.09;5069442;28;20086;-67
2022/08/06 10:45:05;;;;;;;3.78;0.85;;;;;;;20.24;46.45;102736.88;5069553;28;20020;-67
2022/08/06 10:47:32;;;;;;;1.45;1.13;;;;;;;20.23;46.41;102724.38;5069418;28;20036;-68
2022/08/06 10:49:59;;;;;;;3.13;0.70;;;;;;;20.48;47.35;102738.81;5069339;28;20024;-68
2022/08/06 10:52:25;;;;;;;1.05;0.88;;;;;;;20.64;44.77;102723.94;5069455;28;20082;-68
2022/08/06 10:54:51;;;;;;;0.80;0.55;;;;;;;20.75;45.25;102727.84;5069328;28;20029;-68
2022/08/06 10:57:18;;;;;;;0.77;0.77;;;;;;;20.86;44.79;102731.75;5069283;28;20028;-68
2022/08/06 10:59:45;;;;;;;3.03;1.05;;;;;;;20.94;45.42;102716.03;5068766;28;20044;-68
2022/08/06 11:02:45;;;;;;;8.32;1.33;;;;;;;21.00;45.25;102734.13;5068339;28;20103;-67
2022/08/06 11:05:20;;;;;;;1.65;0.55;;;;;;;20.82;44.88;102730.53;5069176;28;20426;-68
2022/08/06 11:08:04;;;;;;;0.57;0.57;;;;;;;20.73;46.83;102729.97;5068958;28;20024;-68
2022/08/06 11:10:29;;;;;;;0.63;0.60;;;;;;;20.67;45.59;102722.69;5068721;28;20036;-68
2022/08/06 11:13:19;;;;;;;1.77;0.70;;;;;;;20.76;47.03;102727.63;5068917;28;20031;-68
2022/08/06 11:15:44;;;;;;;1.08;0.55;;;;;;;20.86;43.94;102718.19;5068905;28;20263;-68
2022/08/06 11:18:12;;;;;;;3.00;0.95;;;;;;;21.01;44.27;102718.69;5068858;28;20043;-68
2022/08/06 11:20:48;;;;;;;1.55;0.60;;;;;;;21.11;45.10;102721.72;5068587;28;20103;-68
2022/08/06 11:23:13;;;;;;;6.85;1.63;;;;;;;21.20;45.68;102722.31;5068549;28;20035;-69
2022/08/06 11:25:50;;;;;;;2.00;0.63;;;;;;;21.00;43.27;102717.84;5068555;28;20024;-68
2022/08/06 11:28:18;;;;;;;1.55;0.50;;;;;;;20.97;41.65;102722.91;5068442;28;20279;-68
2022/08/06 11:30:46;;;;;;;0.70;0.70;;;;;;;20.87;45.46;102719.84;5068281;28;20633;-68
2022/08/06 11:33:13;;;;;;;0.80;0.80;;;;;;;21.08;44.75;102718.66;5068894;28;20511;-67
2022/08/06 11:35:41;;;;;;;0.95;0.60;;;;;;;21.23;42.95;102714.53;5068918;28;20047;-68
2022/08/06 11:38:09;;;;;;;4.88;1.20;;;;;;;21.43;45.80;102714.41;5068769;28;20036;-68
2022/08/06 11:41:12;;;;;;;2.15;0.60;;;;;;;21.41;43.13;102713.78;5070963;28;20029;-68